createdAt,value
2018-06-17T00:01:35.467Z,82.37
2018-06-17T00:04:04.417Z,82.32
2018-06-17T00:06:33.349Z,82.83
2018-06-17T00:09:02.240Z,82.85
2018-06-17T00:11:31.131Z,83.59
2018-06-17T00:14:00.017Z,83.67
2018-06-17T00:16:28.918Z,83.59
2018-06-17T00:18:57.746Z,83.77
2018-06-17T00:21:26.630Z,83.87
2018-06-17T00:23:55.545Z,84.35
2018-06-17T00:26:25.200Z,84.69
2018-06-17T00:28:54.152Z,84.37
2018-06-17T00:31:23.080Z,84.74
2018-06-17T00:33:51.961Z,85.20
2018-06-17T00:36:20.949Z,85.06
2018-06-17T00:38:49.825Z,85.31
2018-06-17T00:41:18.778Z,85.10
2018-06-17T00:43:47.722Z,85.77
2018-06-17T00:46:16.650Z,85.64
2018-06-17T00:48:45.753Z,84.95
2018-06-17T00:51:15.269Z,85.48
2018-06-17T00:53:44.156Z,86.02
2018-06-17T00:56:13.037Z,85.85
2018-06-17T00:58:41.922Z,85.71
2018-06-17T01:01:10.831Z,85.54
2018-06-17T01:03:39.761Z,85.64
2018-06-17T01:06:08.663Z,84.89
2018-06-17T01:08:37.641Z,85.29
2018-06-17T01:11:06.581Z,85.58
2018-06-17T01:13:35.477Z,85.67
2018-06-17T01:16:04.349Z,85.81
2018-06-17T01:18:33.262Z,86.31
2018-06-17T01:21:02.140Z,86.18
2018-06-17T01:23:31.047Z,85.47
2018-06-17T01:26:04.074Z,85.76
2018-06-17T01:28:32.950Z,86.13
2018-06-17T01:31:01.900Z,85.92
2018-06-17T01:33:30.785Z,86.69
2018-06-17T01:35:59.731Z,86.89
2018-06-17T01:38:28.708Z,86.86
2018-06-17T01:40:58.026Z,87.18
2018-06-17T01:43:26.897Z,87.30
2018-06-17T01:45:55.809Z,87.11
2018-06-17T01:48:24.673Z,87.14
2018-06-17T01:50:53.578Z,87.06
2018-06-17T01:53:22.477Z,87.07
2018-06-17T01:55:51.573Z,87.10
2018-06-17T01:58:20.474Z,87.40
2018-06-17T02:00:49.313Z,87.07
2018-06-17T02:03:23.484Z,87.38
2018-06-17T02:05:57.304Z,87.22
2018-06-17T02:08:31.381Z,87.09
2018-06-17T02:11:05.385Z,86.48
2018-06-17T02:13:34.249Z,86.79
2018-06-17T02:16:03.096Z,86.67
2018-06-17T02:18:31.905Z,86.91
2018-06-17T02:21:00.741Z,86.90
2018-06-17T02:23:29.561Z,86.68
2018-06-17T02:25:58.408Z,86.83
2018-06-17T02:28:27.305Z,87.09
2018-06-17T02:30:56.189Z,87.87
2018-06-17T02:33:25.047Z,86.54
2018-06-17T02:35:53.840Z,86.03
2018-06-17T02:38:22.677Z,85.99
2018-06-17T02:40:51.500Z,86.67
2018-06-17T02:43:20.357Z,87.04
2018-06-17T02:45:54.279Z,87.04
2018-06-17T02:48:28.321Z,87.17
2018-06-17T02:51:02.371Z,87.37
2018-06-17T02:53:36.258Z,87.34
2018-06-17T02:56:05.156Z,87.46
2018-06-17T02:58:34.017Z,87.99
2018-06-17T03:01:02.840Z,87.33
2018-06-17T03:03:31.694Z,87.50
2018-06-17T03:06:00.987Z,87.46
2018-06-17T03:08:29.806Z,87.51
2018-06-17T03:10:58.677Z,87.79
2018-06-17T03:13:27.532Z,87.67
2018-06-17T03:15:56.388Z,87.37
2018-06-17T03:18:25.249Z,87.53
2018-06-17T03:20:54.070Z,87.66
2018-06-17T03:23:22.900Z,87.46
2018-06-17T03:25:56.787Z,87.52
2018-06-17T03:28:30.829Z,87.48
2018-06-17T03:32:04.318Z,87.39
2018-06-17T03:34:33.213Z,87.92
2018-06-17T03:37:02.116Z,87.58
2018-06-17T03:39:30.968Z,87.62
2018-06-17T03:41:59.782Z,87.66
2018-06-17T03:44:28.751Z,87.58
2018-06-17T03:46:57.650Z,87.37
2018-06-17T03:49:26.510Z,87.56
2018-06-17T03:51:55.497Z,87.45
2018-06-17T03:54:24.800Z,87.38
2018-06-17T03:56:53.692Z,87.62
2018-06-17T03:59:22.684Z,87.37
2018-06-17T04:01:51.511Z,87.56
2018-06-17T04:04:22.546Z,87.58
2018-06-17T04:06:51.524Z,87.84
2018-06-17T04:09:20.458Z,87.59
2018-06-17T04:11:49.306Z,87.07
2018-06-17T04:14:18.128Z,86.95
2018-06-17T04:16:47.099Z,86.74
2018-06-17T04:19:15.982Z,86.94
2018-06-17T04:21:44.802Z,86.17
2018-06-17T04:24:13.617Z,86.39
2018-06-17T04:26:42.490Z,86.68
2018-06-17T04:29:11.387Z,86.26
2018-06-17T04:31:40.291Z,86.11
2018-06-17T04:34:10.546Z,85.74
2018-06-17T04:36:39.417Z,85.42
2018-06-17T04:39:09.045Z,83.77
2018-06-17T04:41:37.945Z,83.66
2018-06-17T04:44:06.829Z,82.52
2018-06-17T04:46:35.771Z,81.74
2018-06-17T04:49:04.774Z,81.46
2018-06-17T04:51:33.701Z,81.55
2018-06-17T04:54:02.652Z,80.92
2018-06-17T04:56:31.543Z,81.74
2018-06-17T04:59:00.432Z,82.04
2018-06-17T05:01:30.718Z,80.89
2018-06-17T05:03:59.621Z,76.47
2018-06-17T05:06:28.444Z,72.03
2018-06-17T05:08:57.428Z,67.76
2018-06-17T05:11:26.333Z,65.12
2018-06-17T05:13:55.166Z,62.75
2018-06-17T05:16:23.991Z,62.00
2018-06-17T05:18:52.978Z,59.64
2018-06-17T05:21:21.788Z,58.70
2018-06-17T05:23:50.637Z,57.92
2018-06-17T05:26:19.490Z,54.36
2018-06-17T05:28:48.355Z,53.60
2018-06-17T05:31:17.225Z,52.69
2018-06-17T05:33:46.145Z,52.82
2018-06-17T05:36:15.021Z,51.51
2018-06-17T05:38:43.904Z,51.81
2018-06-17T05:41:12.786Z,53.29
2018-06-17T05:43:41.701Z,54.19
2018-06-17T05:46:10.601Z,56.21
2018-06-17T05:48:39.429Z,61.57
2018-06-17T05:51:08.329Z,64.58
2018-06-17T05:53:37.175Z,67.31
2018-06-17T05:56:06.101Z,70.00
2018-06-17T05:58:35.212Z,67.08
2018-06-17T06:01:04.156Z,64.13
2018-06-17T06:03:33.060Z,68.71
2018-06-17T06:06:01.909Z,67.22
2018-06-17T06:08:30.816Z,64.15
2018-06-17T06:10:59.712Z,63.97
2018-06-17T06:13:28.586Z,64.36
2018-06-17T06:15:57.436Z,63.93
2018-06-17T06:18:26.530Z,60.16
2018-06-17T06:21:02.303Z,57.93
2018-06-17T06:23:31.643Z,60.21
2018-06-17T06:26:00.560Z,63.09
2018-06-17T06:28:29.440Z,65.12
2018-06-17T06:31:00.138Z,64.15
2018-06-17T06:33:29.306Z,61.08
2018-06-17T06:35:58.143Z,59.38
2018-06-17T06:38:27.958Z,59.22
2018-06-17T06:40:56.876Z,59.30
2018-06-17T06:43:25.744Z,63.05
2018-06-17T06:45:54.579Z,65.44
2018-06-17T06:48:23.597Z,67.21
2018-06-17T06:50:52.596Z,66.94
2018-06-17T06:53:21.647Z,67.99
2018-06-17T06:55:50.548Z,66.52
2018-06-17T06:58:19.446Z,64.40
2018-06-17T07:00:48.362Z,64.41
2018-06-17T07:03:28.336Z,61.79
2018-06-17T07:06:08.189Z,66.15
2018-06-17T07:08:48.089Z,62.92
2018-06-17T07:11:16.970Z,64.56
2018-06-17T07:13:47.185Z,64.49
2018-06-17T07:16:27.105Z,62.87
2018-06-17T07:19:02.692Z,59.92
2018-06-17T07:21:32.478Z,61.42
2018-06-17T07:24:01.713Z,59.61
2018-06-17T07:26:47.311Z,56.49
2018-06-17T07:29:30.803Z,56.13
2018-06-17T07:31:59.788Z,55.54
2018-06-17T07:34:29.799Z,55.58
2018-06-17T07:36:58.734Z,53.21
2018-06-17T07:41:35.551Z,54.88
2018-06-17T07:44:04.638Z,53.13
2018-06-17T07:46:34.079Z,54.26
2018-06-17T07:49:42.885Z,54.50
2018-06-17T07:52:24.913Z,54.31
2018-06-17T07:54:53.795Z,57.22
2018-06-17T07:57:25.001Z,55.83
2018-06-17T07:59:54.387Z,54.95
2018-06-17T08:02:23.511Z,55.78
2018-06-17T08:04:52.704Z,57.00
2018-06-17T08:07:22.076Z,58.58
2018-06-17T08:09:51.076Z,59.69
2018-06-17T08:12:20.946Z,58.96
2018-06-17T08:14:51.297Z,60.37
2018-06-17T08:17:20.750Z,58.97
2018-06-17T08:19:50.125Z,59.24
2018-06-17T08:22:19.921Z,59.72
2018-06-17T08:24:49.455Z,57.25
2018-06-17T08:27:19.744Z,55.85
2018-06-17T08:29:50.018Z,56.76
2018-06-17T08:32:21.302Z,52.96
2018-06-17T08:34:51.101Z,51.64
2018-06-17T08:37:21.502Z,47.89
2018-06-17T08:39:50.307Z,48.20
2018-06-17T08:42:19.955Z,45.65
2018-06-17T08:44:48.913Z,43.64
2018-06-17T08:47:17.761Z,43.14
2018-06-17T08:49:49.477Z,43.87
2018-06-17T08:52:18.356Z,49.20
2018-06-17T08:54:47.261Z,50.36
2018-06-17T08:57:17.972Z,52.15
2018-06-17T08:59:48.578Z,55.17
2018-06-17T09:02:18.757Z,55.43
2018-06-17T09:04:49.962Z,55.23
2018-06-17T09:07:19.613Z,54.90
2018-06-17T09:09:48.727Z,56.88
2018-06-17T09:12:17.656Z,55.51
2018-06-17T09:14:46.522Z,57.12
2018-06-17T09:17:15.527Z,57.46
2018-06-17T09:19:44.478Z,54.19
2018-06-17T09:22:13.348Z,54.75
2018-06-17T09:24:42.249Z,55.89
2018-06-17T09:27:11.149Z,54.88
2018-06-17T09:29:40.058Z,56.02
2018-06-17T09:32:09.138Z,55.50
2018-06-17T09:34:38.160Z,56.00
2018-06-17T09:37:07.155Z,55.96
2018-06-17T09:39:36.004Z,53.27
2018-06-17T09:42:05.334Z,55.76
2018-06-17T09:44:34.652Z,53.99
2018-06-17T09:47:03.498Z,54.88
2018-06-17T09:49:33.261Z,55.40
2018-06-17T09:52:02.179Z,54.77
2018-06-17T09:54:31.611Z,53.07
2018-06-17T09:57:01.497Z,53.64
2018-06-17T09:59:31.389Z,51.95
2018-06-17T10:02:00.361Z,53.17
2018-06-17T10:04:30.477Z,51.45
2018-06-17T10:06:59.455Z,49.95
2018-06-17T10:09:29.473Z,49.92
2018-06-17T10:11:58.806Z,48.75
2018-06-17T10:14:27.672Z,50.39
2018-06-17T10:16:57.641Z,50.09
2018-06-17T10:19:26.604Z,51.10
2018-06-17T10:21:55.526Z,54.18
2018-06-17T10:24:24.457Z,52.18
2018-06-17T10:26:53.364Z,51.24
2018-06-17T10:29:22.319Z,50.86
2018-06-17T10:31:51.249Z,48.08
2018-06-17T10:34:20.467Z,49.31
2018-06-17T10:36:49.576Z,50.09
2018-06-17T10:39:32.016Z,51.64
2018-06-17T10:42:00.858Z,51.24
2018-06-17T10:44:29.706Z,50.56
2018-06-17T10:46:58.507Z,48.92
2018-06-17T10:49:27.386Z,49.31
2018-06-17T10:51:56.264Z,50.89
2018-06-17T10:54:25.149Z,49.82
2018-06-17T10:56:54.059Z,49.08
2018-06-17T10:59:22.929Z,48.27
2018-06-17T11:01:51.824Z,43.66
2018-06-17T11:04:21.018Z,46.51
2018-06-17T11:06:49.968Z,46.37
2018-06-17T11:09:18.902Z,45.51
2018-06-17T11:11:47.806Z,47.42
2018-06-17T11:14:16.649Z,47.86
2018-06-17T11:16:45.512Z,49.06
2018-06-17T11:19:14.388Z,50.00
2018-06-17T11:21:43.253Z,48.10
2018-06-17T11:24:12.149Z,48.72
2018-06-17T11:26:41.917Z,44.61
2018-06-17T11:29:10.772Z,43.70
2018-06-17T11:31:39.685Z,45.68
2018-06-17T11:34:08.548Z,42.22
2018-06-17T11:36:37.413Z,43.50
2018-06-17T11:39:09.358Z,43.07
2018-06-17T11:41:38.142Z,43.72
2018-06-17T11:44:07.050Z,43.55
2018-06-17T11:46:35.893Z,43.84
2018-06-17T11:49:04.820Z,43.43
2018-06-17T11:51:33.888Z,42.70
2018-06-17T11:54:02.740Z,46.05
2018-06-17T11:56:31.712Z,41.33
2018-06-17T11:59:00.510Z,41.52
2018-06-17T12:01:29.357Z,41.22
2018-06-17T12:03:58.243Z,42.59
2018-06-17T12:06:27.197Z,42.84
2018-06-17T12:08:56.248Z,44.77
2018-06-17T12:11:25.136Z,44.09
2018-06-17T12:13:54.050Z,44.31
2018-06-17T12:16:22.973Z,42.28
2018-06-17T12:18:51.941Z,42.03
2018-06-17T12:21:20.763Z,40.68
2018-06-17T12:23:49.665Z,40.56
2018-06-17T12:26:18.504Z,41.25
2018-06-17T12:28:47.453Z,42.25
2018-06-17T12:31:16.382Z,42.12
2018-06-17T12:33:45.233Z,43.08
2018-06-17T12:36:14.132Z,42.83
2018-06-17T12:38:43.032Z,42.28
2018-06-17T12:41:11.953Z,45.78
2018-06-17T12:43:40.750Z,44.02
2018-06-17T12:46:09.625Z,41.84
2018-06-17T12:48:39.384Z,42.29
2018-06-17T12:51:08.202Z,40.88
2018-06-17T12:53:37.078Z,42.01
2018-06-17T12:56:05.962Z,41.28
2018-06-17T12:58:34.961Z,42.40
2018-06-17T13:01:04.073Z,43.08
2018-06-17T13:03:32.916Z,42.96
2018-06-17T13:06:01.995Z,42.94
2018-06-17T13:08:30.841Z,40.92
2018-06-17T13:10:59.721Z,40.63
2018-06-17T13:13:28.522Z,41.58
2018-06-17T13:15:57.391Z,42.87
2018-06-17T13:18:26.271Z,43.24
2018-06-17T13:20:55.129Z,43.89
2018-06-17T13:23:24.096Z,43.39
2018-06-17T13:25:52.906Z,43.59
2018-06-17T13:28:21.745Z,43.06
2018-06-17T13:30:50.625Z,44.72
2018-06-17T13:33:19.442Z,45.47
2018-06-17T13:35:48.311Z,44.86
2018-06-17T13:38:17.262Z,45.22
2018-06-17T13:40:46.301Z,47.29
2018-06-17T13:43:15.216Z,48.16
2018-06-17T13:45:44.136Z,49.08
2018-06-17T13:48:13.425Z,48.81
2018-06-17T13:50:42.286Z,47.56
2018-06-17T13:53:11.859Z,48.52
2018-06-17T13:55:40.692Z,46.35
2018-06-17T13:58:09.563Z,45.72
2018-06-17T14:00:38.395Z,46.38
2018-06-17T14:03:07.234Z,45.89
2018-06-17T14:05:36.045Z,47.26
2018-06-17T14:08:04.990Z,46.72
2018-06-17T14:10:33.823Z,48.79
2018-06-17T14:13:02.653Z,50.05
2018-06-17T14:15:31.697Z,51.72
2018-06-17T14:18:00.485Z,52.80
2018-06-17T14:20:29.458Z,52.62
2018-06-17T14:22:58.345Z,53.05
2018-06-17T14:25:27.217Z,55.48
2018-06-17T14:27:56.091Z,56.33
2018-06-17T14:30:25.104Z,57.11
2018-06-17T14:32:53.959Z,57.55
2018-06-17T14:35:22.829Z,58.40
2018-06-17T14:37:51.768Z,57.47
2018-06-17T14:40:20.601Z,59.21
2018-06-17T14:42:54.687Z,60.71
2018-06-17T14:45:28.645Z,59.84
2018-06-17T14:48:02.568Z,60.26
2018-06-17T14:51:36.091Z,60.99
2018-06-17T14:54:04.984Z,60.68
2018-06-17T14:56:33.867Z,61.08
2018-06-17T14:59:02.719Z,59.69
2018-06-17T15:01:31.579Z,60.66
2018-06-17T15:04:00.422Z,60.25
2018-06-17T15:06:29.298Z,58.45
2018-06-17T15:08:58.239Z,58.55
2018-06-17T15:11:27.106Z,58.77
2018-06-17T15:13:55.954Z,59.57
2018-06-17T15:16:24.801Z,59.54
2018-06-17T15:18:53.761Z,59.43
2018-06-17T15:21:22.635Z,60.47
2018-06-17T15:23:51.504Z,61.29
2018-06-17T15:26:20.401Z,61.63
2018-06-17T15:28:49.225Z,62.72
2018-06-17T15:31:23.363Z,61.72
2018-06-17T15:33:57.337Z,59.04
2018-06-17T15:36:31.330Z,59.19
2018-06-17T15:39:04.295Z,59.27
2018-06-17T15:41:33.209Z,58.03
2018-06-17T15:44:02.150Z,58.83
2018-06-17T15:46:30.978Z,59.17
2018-06-17T15:48:59.828Z,59.85
2018-06-17T15:51:28.695Z,58.49
2018-06-17T15:53:57.520Z,61.39
2018-06-17T15:56:26.430Z,61.40
2018-06-17T15:58:55.346Z,58.31
2018-06-17T16:01:24.261Z,58.39
2018-06-17T16:03:53.085Z,56.47
2018-06-17T16:06:21.946Z,55.72
2018-06-17T16:08:50.852Z,55.22
2018-06-17T16:11:19.689Z,53.57
2018-06-17T16:13:53.486Z,53.30
2018-06-17T16:16:27.557Z,53.62
2018-06-17T16:19:01.618Z,54.01
2018-06-17T16:21:30.475Z,53.32
2018-06-17T16:23:59.346Z,55.32
2018-06-17T16:26:28.234Z,55.16
2018-06-17T16:28:57.066Z,55.64
2018-06-17T16:31:26.913Z,53.51
2018-06-17T16:33:55.869Z,53.25
2018-06-17T16:36:24.782Z,53.44
2018-06-17T16:38:53.630Z,53.50
2018-06-17T16:41:22.532Z,55.46
2018-06-17T16:43:51.342Z,54.66
2018-06-17T16:46:20.175Z,54.34
2018-06-17T16:48:49.013Z,54.86
2018-06-17T16:51:26.598Z,55.87
2018-06-17T16:54:00.701Z,54.51
2018-06-17T16:56:34.762Z,55.59
2018-06-17T16:59:08.866Z,55.86
2018-06-17T17:01:37.759Z,55.39
2018-06-17T17:04:06.646Z,54.25
2018-06-17T17:06:35.533Z,55.14
2018-06-17T17:09:05.290Z,53.84
2018-06-17T17:11:34.134Z,53.55
2018-06-17T17:14:02.916Z,54.68
2018-06-17T17:16:31.733Z,53.78
2018-06-17T17:19:00.630Z,53.67
2018-06-17T17:21:29.488Z,53.74
2018-06-17T17:23:58.341Z,54.76
2018-06-17T17:26:27.202Z,54.98
2018-06-17T17:28:56.211Z,53.06
2018-06-17T17:31:28.173Z,53.51
2018-06-17T17:34:02.183Z,53.92
2018-06-17T17:36:36.113Z,53.31
2018-06-17T17:39:12.272Z,53.94
2018-06-17T17:41:41.146Z,52.20
2018-06-17T17:44:10.340Z,52.56
2018-06-17T17:46:44.394Z,52.04
2018-06-17T17:49:20.861Z,51.88
2018-06-17T17:51:49.877Z,51.65
2018-06-17T17:54:18.927Z,51.42
2018-06-17T17:56:47.965Z,52.66
2018-06-17T17:59:16.822Z,53.06
2018-06-17T18:01:46.313Z,54.02
2018-06-17T18:04:15.328Z,54.26
2018-06-17T18:06:44.355Z,53.79
2018-06-17T18:09:14.658Z,55.45
2018-06-17T18:11:44.829Z,54.14
2018-06-17T18:14:13.752Z,55.97
2018-06-17T18:16:43.684Z,54.71
2018-06-17T18:19:13.666Z,53.83
2018-06-17T18:21:44.433Z,55.67
2018-06-17T18:24:15.476Z,54.72
2018-06-17T18:26:49.520Z,55.43
2018-06-17T18:29:24.198Z,56.20
2018-06-17T18:31:58.308Z,55.65
2018-06-17T18:34:32.663Z,54.35
2018-06-17T18:37:01.531Z,56.06
2018-06-17T18:39:30.617Z,57.04
2018-06-17T18:41:59.569Z,56.65
2018-06-17T18:44:29.230Z,57.19
2018-06-17T18:46:58.081Z,57.21
2018-06-17T18:49:26.968Z,59.33
2018-06-17T18:51:58.321Z,58.38
2018-06-17T18:54:29.404Z,57.56
2018-06-17T18:57:01.526Z,57.03
2018-06-17T18:59:36.230Z,58.29
2018-06-17T19:02:05.496Z,58.67
2018-06-17T19:04:34.645Z,58.84
2018-06-17T19:07:05.052Z,57.98
2018-06-17T19:09:38.969Z,59.21
2018-06-17T19:12:13.125Z,58.45
2018-06-17T19:14:47.185Z,56.48
2018-06-17T19:17:21.622Z,58.44
2018-06-17T19:19:50.709Z,58.17
2018-06-17T19:22:19.658Z,58.78
2018-06-17T19:24:48.940Z,59.67
2018-06-17T19:27:18.010Z,57.53
2018-06-17T19:29:47.152Z,59.54
2018-06-17T19:32:16.129Z,59.50
2018-06-17T19:34:46.086Z,59.56
2018-06-17T19:37:15.284Z,60.56
2018-06-17T19:39:48.605Z,59.45
2018-06-17T19:42:17.429Z,58.80
2018-06-17T19:44:46.492Z,58.73
2018-06-17T19:47:17.062Z,58.73
2018-06-17T19:49:52.155Z,59.64
2018-06-17T19:52:26.289Z,60.17
2018-06-17T19:55:00.922Z,60.27
2018-06-17T19:57:36.170Z,60.12
2018-06-17T20:00:11.114Z,61.37
2018-06-17T20:02:40.298Z,60.23
2018-06-17T20:05:09.283Z,58.88
2018-06-17T20:07:38.204Z,60.59
2018-06-17T20:10:07.228Z,59.63
2018-06-17T20:12:36.204Z,59.41
2018-06-17T20:15:05.217Z,59.40
2018-06-17T20:17:34.222Z,59.78
2018-06-17T20:20:03.106Z,59.97
2018-06-17T20:22:31.946Z,59.88
2018-06-17T20:25:00.824Z,59.63
2018-06-17T20:27:29.660Z,60.39
2018-06-17T20:29:58.598Z,60.97
2018-06-17T20:32:33.096Z,59.51
2018-06-17T20:35:07.092Z,60.20
2018-06-17T20:37:42.500Z,60.33
2018-06-17T20:40:16.504Z,61.54
2018-06-17T20:42:52.076Z,63.41
2018-06-17T20:45:21.308Z,61.08
2018-06-17T20:47:52.466Z,61.52
2018-06-17T20:50:21.380Z,62.04
2018-06-17T20:52:50.379Z,61.79
2018-06-17T20:55:19.585Z,62.31
2018-06-17T20:57:48.646Z,63.08
2018-06-17T21:00:17.672Z,63.15
2018-06-17T21:02:46.810Z,63.78
2018-06-17T21:05:15.698Z,64.51
2018-06-17T21:07:44.589Z,64.75
2018-06-17T21:10:13.496Z,64.10
2018-06-17T21:12:42.394Z,65.11
2018-06-17T21:15:16.831Z,64.75
2018-06-17T21:17:49.655Z,64.10
2018-06-17T21:20:23.901Z,64.39
2018-06-17T21:22:58.058Z,65.15
2018-06-17T21:25:32.242Z,64.96
2018-06-17T21:28:02.271Z,65.46
2018-06-17T21:30:31.214Z,65.72
2018-06-17T21:33:00.151Z,66.20
2018-06-17T21:35:29.052Z,65.99
2018-06-17T21:37:57.965Z,66.37
2018-06-17T21:40:26.952Z,66.93
2018-06-17T21:42:55.812Z,66.95
2018-06-17T21:45:24.719Z,67.97
2018-06-17T21:47:55.467Z,67.75
2018-06-17T21:50:24.343Z,67.64
2018-06-17T21:52:53.508Z,68.84
2018-06-17T21:55:22.761Z,69.44
2018-06-17T21:57:51.617Z,69.20
2018-06-17T22:00:20.515Z,69.61
2018-06-17T22:02:49.407Z,69.74
2018-06-17T22:05:18.302Z,70.46
2018-06-17T22:07:52.484Z,70.16
2018-06-17T22:10:26.535Z,70.13
2018-06-17T22:13:01.353Z,70.67
2018-06-17T22:15:35.341Z,71.30
2018-06-17T22:18:05.011Z,70.53
2018-06-17T22:20:33.876Z,71.02
2018-06-17T22:23:02.800Z,70.75
2018-06-17T22:25:31.700Z,70.67
2018-06-17T22:28:00.625Z,70.77
2018-06-17T22:30:29.512Z,70.45
2018-06-17T22:32:58.480Z,70.18
2018-06-17T22:35:27.318Z,70.93
2018-06-17T22:37:56.218Z,71.13
2018-06-17T22:40:25.072Z,70.83
2018-06-17T22:42:53.957Z,70.63
2018-06-17T22:45:22.858Z,70.97
2018-06-17T22:47:56.845Z,72.44
2018-06-17T22:50:25.696Z,72.86
2018-06-17T22:53:05.664Z,72.20
2018-06-17T22:55:34.643Z,71.60
2018-06-17T22:58:08.597Z,71.39
2018-06-17T23:00:42.767Z,71.62
2018-06-17T23:03:16.883Z,70.72
2018-06-17T23:05:51.018Z,71.45
2018-06-17T23:08:25.171Z,71.18
2018-06-17T23:10:54.023Z,70.75
2018-06-17T23:13:22.847Z,70.72
2018-06-17T23:15:51.740Z,70.99
2018-06-17T23:18:20.658Z,70.64
2018-06-17T23:20:49.589Z,70.97
2018-06-17T23:23:18.481Z,70.49
2018-06-17T23:25:47.661Z,71.59
2018-06-17T23:28:16.557Z,71.29
2018-06-17T23:30:45.457Z,70.93
2018-06-17T23:33:14.407Z,69.62
2018-06-17T23:35:43.233Z,70.19
2018-06-17T23:38:12.042Z,70.35
2018-06-17T23:40:40.906Z,70.37
2018-06-17T23:43:09.778Z,70.37
2018-06-17T23:45:42.744Z,70.74
2018-06-17T23:48:16.758Z,70.85
2018-06-17T23:50:50.767Z,70.24
2018-06-17T23:53:24.780Z,70.99
2018-06-17T23:55:58.709Z,70.56
2018-06-17T23:58:27.574Z,71.09
